Time;durP1;ratioP1;P1;durP2;ratioP2;P2;SDS_P1;SDS_P2;PMS_P1;PMS_P2;Temp;Humidity;BMP_temperature;BMP_pressure;BME280_temperature;BME280_humidity;BME280_pressure;Samples;Min_cycle;Max_cycle;Signal;HPM_P1;HPM_P2
2023/07/10 00:04:42;;;;;;;1.65;1.17;;;;;;;20.11;100.00;100306.47;6117741;23;20054;-91
2023/07/10 00:07:07;;;;;;;0.82;0.82;;;;;;;20.01;100.00;100285.41;6044854;23;20443;-91
2023/07/10 00:09:33;;;;;;;0.95;0.75;;;;;;;20.04;100.00;100301.28;6092603;23;20025;-91
2023/07/10 00:11:58;;;;;;;2.00;1.13;;;;;;;19.97;100.00;100304.53;6068433;23;20017;-92
2023/07/10 00:14:24;;;;;;;1.65;1.52;;;;;;;19.91;100.00;100293.22;6068604;23;20391;-93
2023/07/10 00:16:51;;;;;;;1.10;1.05;;;;;;;19.95;100.00;100293.00;6067097;23;20121;-92
2023/07/10 00:19:17;;;;;;;1.35;1.25;;;;;;;19.86;100.00;100287.50;6067976;23;20102;-94
2023/07/10 00:21:42;;;;;;;1.98;1.70;;;;;;;19.88;100.00;100304.69;6068221;23;20101;-93
2023/07/10 00:24:08;;;;;;;1.70;0.73;;;;;;;19.82;100.00;100295.41;6044913;23;20552;-94
2023/07/10 00:26:37;;;;;;;1.75;1.23;;;;;;;19.78;100.00;100300.47;6092821;23;20002;-94
2023/07/10 00:29:25;;;;;;;0.75;0.75;;;;;;;19.81;100.00;100311.53;6067586;23;20158;-92
2023/07/10 00:31:50;;;;;;;1.25;1.10;;;;;;;19.74;100.00;100300.69;6066234;23;20022;-93
2023/07/10 00:34:17;;;;;;;1.45;0.68;;;;;;;19.65;100.00;100300.06;6092092;23;20017;-93
2023/07/10 00:36:50;;;;;;;0.47;0.30;;;;;;;19.68;100.00;100307.53;6044258;23;20006;-93
2023/07/10 00:39:27;;;;;;;0.40;0.40;;;;;;;19.71;100.00;100312.94;6044306;23;20022;-93
2023/07/10 00:42:00;;;;;;;0.50;0.50;;;;;;;19.69;100.00;100309.09;6091627;23;20021;-93
2023/07/10 00:44:32;;;;;;;0.63;0.63;;;;;;;19.59;100.00;100305.63;6091842;23;20375;-91
2023/07/10 00:47:03;;;;;;;1.48;1.05;;;;;;;19.60;100.00;100306.41;6043661;23;20451;-93
2023/07/10 00:49:52;;;;;;;2.03;1.45;;;;;;;19.52;100.00;100306.06;6066337;23;20072;-93
2023/07/10 00:52:21;;;;;;;0.50;0.50;;;;;;;19.54;100.00;100297.88;6044909;23;20021;-92
2023/07/10 00:54:49;;;;;;;1.02;1.02;;;;;;;19.46;100.00;100296.75;6092809;23;20025;-93
2023/07/10 00:57:21;;;;;;;0.90;0.77;;;;;;;19.41;100.00;100297.44;6070383;23;20017;-93
2023/07/10 00:59:47;;;;;;;0.60;0.60;;;;;;;19.42;100.00;100296.16;6068522;23;20018;-94
2023/07/10 01:02:12;;;;;;;1.52;1.42;;;;;;;19.55;100.00;100305.06;6085078;23;20049;-93
2023/07/10 01:04:40;;;;;;;0.90;0.57;;;;;;;19.57;100.00;100299.72;6148220;23;20045;-92
2023/07/10 01:07:16;;;;;;;0.70;0.65;;;;;;;19.61;100.00;100305.16;6099988;23;20017;-94
2023/07/10 01:09:46;;;;;;;0.65;0.65;;;;;;;19.60;100.00;100306.41;6074835;23;20326;-93
2023/07/10 01:12:12;;;;;;;1.52;0.80;;;;;;;19.57;100.00;100304.59;6099673;23;20013;-92
2023/07/10 01:14:37;;;;;;;2.05;1.55;;;;;;;19.47;100.00;100287.84;6146832;23;20076;-93
2023/07/10 01:17:05;;;;;;;0.57;0.57;;;;;;;19.44;100.00;100293.69;6098425;23;20176;-93
2023/07/10 01:19:30;;;;;;;1.95;1.65;;;;;;;19.43;100.00;100298.53;6097964;23;20112;-92
2023/07/10 01:21:56;;;;;;;1.88;1.30;;;;;;;19.35;100.00;100303.00;6098387;23;20469;-94
2023/07/10 01:24:22;;;;;;;0.95;0.93;;;;;;;19.30;100.00;100294.47;6124042;23;20096;-93
2023/07/10 01:26:47;;;;;;;0.30;0.30;;;;;;;19.16;100.00;100298.91;6097347;23;20088;-92
2023/07/10 01:29:25;;;;;;;1.60;1.30;;;;;;;19.10;100.00;100303.66;6100019;23;20048;-94
2023/07/10 01:31:52;;;;;;;1.58;0.90;;;;;;;19.08;100.00;100309.00;6097541;23;20409;-91
2023/07/10 01:34:19;;;;;;;0.98;0.63;;;;;;;19.08;100.00;100306.19;6074688;23;20401;-92
2023/07/10 01:36:45;;;;;;;1.35;1.25;;;;;;;19.00;100.00;100293.81;6122522;23;20423;-93
2023/07/10 01:39:14;;;;;;;1.17;0.63;;;;;;;19.05;100.00;100301.53;6123639;23;20024;-93
2023/07/10 01:41:41;;;;;;;1.58;1.20;;;;;;;19.02;100.00;100299.69;6122722;23;20512;-93
2023/07/10 01:44:37;;;;;;;1.00;0.90;;;;;;;19.00;100.00;100296.63;6122997;23;20103;-94
2023/07/10 01:47:06;;;;;;;0.80;0.80;;;;;;;18.96;100.00;100282.00;6074045;23;20013;-93
2023/07/10 01:49:41;;;;;;;0.90;0.68;;;;;;;18.92;100.00;100278.63;6098323;23;20095;-93
2023/07/10 01:52:08;;;;;;;0.30;0.30;;;;;;;19.01;100.00;100273.63;6123018;23;20010;-93
2023/07/10 01:54:34;;;;;;;0.47;0.47;;;;;;;18.91;100.00;100274.25;6074942;23;20005;-92
2023/07/10 01:57:00;;;;;;;0.95;0.90;;;;;;;18.92;100.00;100273.00;6123625;23;20009;-92
2023/07/10 01:59:25;;;;;;;0.57;0.57;;;;;;;18.99;100.00;100281.78;6122218;23;20018;-93
2023/07/10 02:01:53;;;;;;;0.68;0.68;;;;;;;19.01;100.00;100284.09;6097429;23;20012;-92
2023/07/10 02:04:19;;;;;;;2.90;1.13;;;;;;;19.01;100.00;100279.25;6068616;23;20060;-92
2023/07/10 02:06:44;;;;;;;1.25;1.15;;;;;;;18.93;100.00;100283.72;6093778;23;20010;-93
2023/07/10 02:09:10;;;;;;;0.45;0.45;;;;;;;18.88;100.00;100278.03;6093525;23;20484;-92
2023/07/10 02:11:37;;;;;;;0.68;0.68;;;;;;;18.81;100.00;100275.63;6095039;23;20018;-93
2023/07/10 02:14:03;;;;;;;1.75;1.13;;;;;;;18.86;100.00;100278.53;6119348;23;20454;-93
2023/07/10 02:16:29;;;;;;;1.08;0.70;;;;;;;18.78;100.00;100274.56;6096325;23;20338;-93
2023/07/10 02:18:55;;;;;;;1.42;0.98;;;;;;;18.76;100.00;100267.88;6094568;23;20017;-93
2023/07/10 02:21:20;;;;;;;0.20;0.20;;;;;;;18.67;100.00;100251.13;6096309;23;20463;-92
2023/07/10 02:23:47;;;;;;;0.65;0.65;;;;;;;18.75;100.00;100266.34;6071528;23;20006;-93
2023/07/10 02:26:14;;;;;;;1.25;0.82;;;;;;;18.73;100.00;100266.03;6120336;23;20024;-92
2023/07/10 02:28:42;;;;;;;1.95;1.23;;;;;;;18.74;100.00;100261.97;6095449;23;20061;-93
2023/07/10 02:31:08;;;;;;;2.50;1.13;;;;;;;18.69;100.00;100257.81;6071702;23;20088;-92
2023/07/10 02:33:34;;;;;;;0.63;0.45;;;;;;;18.67;100.00;100265.97;6094648;23;20022;-94
2023/07/10 02:36:00;;;;;;;1.05;0.95;;;;;;;18.53;100.00;100267.53;6095420;23;20089;-93
2023/07/10 02:38:26;;;;;;;0.82;0.75;;;;;;;18.52;100.00;100257.53;6095031;23;20005;-94
2023/07/10 02:40:51;;;;;;;1.00;0.90;;;;;;;18.56;100.00;100260.94;6071575;23;20103;-93
2023/07/10 02:43:19;;;;;;;1.10;0.63;;;;;;;18.58;100.00;100252.81;6071698;23;20059;-94
2023/07/10 02:45:44;;;;;;;0.63;0.63;;;;;;;18.52;100.00;100249.13;6071538;23;20084;-93
2023/07/10 02:48:10;;;;;;;0.52;0.52;;;;;;;18.51;100.00;100258.78;6119026;23;20092;-93
2023/07/10 02:50:36;;;;;;;1.70;1.10;;;;;;;18.46;100.00;100262.28;6071096;23;20045;-92
2023/07/10 02:53:01;;;;;;;1.95;1.55;;;;;;;18.45;100.00;100265.56;6119639;23;20014;-92
2023/07/10 02:55:27;;;;;;;0.57;0.40;;;;;;;18.46;100.00;100264.31;6071280;23;20477;-93
2023/07/10 02:57:52;;;;;;;2.38;1.42;;;;;;;18.40;100.00;100264.22;6119862;23;20465;-93
2023/07/10 03:00:18;;;;;;;3.88;1.55;;;;;;;18.34;100.00;100263.34;6095180;23;20028;-91
2023/07/10 03:02:44;;;;;;;0.82;0.80;;;;;;;18.32;100.00;100263.06;6094338;23;20018;-92
2023/07/10 03:05:09;;;;;;;0.93;0.75;;;;;;;18.40;100.00;100272.63;6075242;23;20113;-92
2023/07/10 03:07:35;;;;;;;0.30;0.30;;;;;;;18.32;100.00;100251.81;6076496;23;20064;-93
2023/07/10 03:10:00;;;;;;;0.73;0.73;;;;;;;18.28;100.00;100265.28;6124898;23;20155;-92
2023/07/10 03:12:26;;;;;;;0.98;0.60;;;;;;;18.24;100.00;100273.13;6075983;23;20018;-94
2023/07/10 03:14:52;;;;;;;0.50;0.50;;;;;;;18.15;100.00;100262.00;6100325;23;20009;-93
2023/07/10 03:17:17;;;;;;;1.00;0.95;;;;;;;18.18;100.00;100270.25;6099165;23;20009;-93
2023/07/10 03:19:44;;;;;;;2.33;0.93;;;;;;;18.12;100.00;100274.97;6099751;23;20019;-93
2023/07/10 03:22:09;;;;;;;1.38;0.63;;;;;;;18.08;100.00;100262.38;6124314;23;20010;-93
2023/07/10 03:24:35;;;;;;;0.50;0.50;;;;;;;18.10;100.00;100266.25;6076384;23;20018;-92
2023/07/10 03:27:01;;;;;;;0.93;0.93;;;;;;;18.12;100.00;100271.38;6100159;23;20076;-92
2023/07/10 03:29:26;;;;;;;0.35;0.35;;;;;;;18.13;100.00;100284.16;6123983;23;20036;-92
2023/07/10 03:31:51;;;;;;;0.45;0.45;;;;;;;18.12;100.00;100280.56;6075223;23;20021;-92
2023/07/10 03:34:17;;;;;;;1.40;1.00;;;;;;;18.08;100.00;100259.56;6099368;23;20148;-93
2023/07/10 03:36:43;;;;;;;1.40;0.85;;;;;;;18.10;100.00;100269.06;6124113;23;20395;-93
2023/07/10 03:39:09;;;;;;;0.50;0.50;;;;;;;18.10;100.00;100273.91;6099904;23;20009;-94
2023/07/10 03:41:35;;;;;;;0.98;0.95;;;;;;;18.08;100.00;100268.00;6100635;23;20025;-93
2023/07/10 03:44:01;;;;;;;0.57;0.57;;;;;;;18.12;100.00;100272.16;6074970;23;20438;-91
2023/07/10 03:46:26;;;;;;;0.38;0.38;;;;;;;18.14;100.00;100263.25;6076148;23;20013;-91
2023/07/10 03:48:52;;;;;;;0.98;0.55;;;;;;;18.17;100.00;100271.50;6098262;23;20013;-92
2023/07/10 03:51:18;;;;;;;0.98;0.80;;;;;;;18.17;100.00;100256.66;6100349;23;20394;-92
2023/07/10 03:53:44;;;;;;;0.52;0.50;;;;;;;18.28;100.00;100265.28;6099131;23;20020;-92
2023/07/10 03:56:10;;;;;;;1.70;1.42;;;;;;;18.28;100.00;100262.47;6099807;23;20026;-92
2023/07/10 03:58:40;;;;;;;0.82;0.73;;;;;;;18.30;100.00;100262.78;6123619;23;20509;-92
2023/07/10 04:01:06;;;;;;;2.20;1.05;;;;;;;18.27;100.00;100237.69;6122474;23;20013;-91
2023/07/10 04:03:34;;;;;;;0.90;0.82;;;;;;;18.30;100.00;100239.53;6094230;23;20018;-92
2023/07/10 04:06:00;;;;;;;1.65;1.02;;;;;;;18.45;100.00;100254.31;6118229;23;20021;-91
2023/07/10 04:08:28;;;;;;;1.20;1.08;;;;;;;18.49;100.00;100255.69;6093876;23;20061;-92
2023/07/10 04:10:56;;;;;;;0.68;0.68;;;;;;;18.34;100.00;100232.47;6113209;23;20450;-92
2023/07/10 04:13:23;;;;;;;0.80;0.80;;;;;;;18.42;100.00;100250.47;6046063;23;20053;-90
2023/07/10 04:16:07;;;;;;;1.75;1.33;;;;;;;18.60;100.00;100258.69;6046124;23;20010;-92
2023/07/10 04:18:34;;;;;;;4.65;1.02;;;;;;;18.67;100.00;100260.34;6069127;23;20030;-91
2023/07/10 04:21:01;;;;;;;0.90;0.70;;;;;;;18.72;100.00;100264.50;6046809;23;20014;-91
2023/07/10 04:23:26;;;;;;;1.88;0.88;;;;;;;18.71;100.00;100249.69;6069368;23;20443;-91
2023/07/10 04:25:52;;;;;;;0.57;0.55;;;;;;;18.81;100.00;100264.38;6047182;23;20008;-91
2023/07/10 04:28:18;;;;;;;0.95;0.88;;;;;;;18.88;100.00;100264.75;6095269;23;20030;-91
2023/07/10 04:30:46;;;;;;;2.42;1.80;;;;;;;18.89;100.00;100257.06;6072335;23;20057;-92
2023/07/10 04:33:12;;;;;;;1.50;1.20;;;;;;;18.96;100.00;100251.84;6071815;23;20002;-91
2023/07/10 04:35:39;;;;;;;1.30;0.95;;;;;;;18.98;100.00;100268.22;6096507;23;20021;-91
2023/07/10 04:38:05;;;;;;;0.55;0.45;;;;;;;18.95;100.00;100257.94;6072050;23;20033;-90
2023/07/10 04:40:30;;;;;;;1.52;1.15;;;;;;;19.01;100.00;100258.78;6072056;23;20018;-91
2023/07/10 04:42:56;;;;;;;0.80;0.80;;;;;;;19.02;100.00;100251.91;6095396;23;20324;-91
2023/07/10 04:45:21;;;;;;;0.68;0.68;;;;;;;19.04;100.00;100255.03;6071661;23;20018;-91
2023/07/10 04:47:47;;;;;;;0.82;0.63;;;;;;;19.12;100.00;100250.53;6047271;23;20026;-90
2023/07/10 04:50:13;;;;;;;0.50;0.50;;;;;;;19.25;100.00;100262.19;6047673;23;20017;-93
2023/07/10 04:52:38;;;;;;;0.90;0.77;;;;;;;19.30;100.00;100263.53;6096340;23;20018;-93
2023/07/10 04:55:04;;;;;;;2.15;1.23;;;;;;;19.41;100.00;100263.69;6072898;23;20006;-92
2023/07/10 04:57:29;;;;;;;4.95;0.80;;;;;;;19.53;100.00;100280.22;6071049;23;20014;-92
2023/07/10 04:59:56;;;;;;;1.02;0.93;;;;;;;19.61;100.00;100274.19;6067049;23;20354;-90
2023/07/10 05:02:21;;;;;;;6.55;1.75;;;;;;;19.75;100.00;100284.56;6067617;23;20096;-92
2023/07/10 05:04:47;;;;;;;1.25;1.15;;;;;;;19.85;100.00;100288.81;6067279;23;20021;-92
2023/07/10 05:07:12;;;;;;;0.95;0.95;;;;;;;19.94;100.00;100280.19;6068779;23;20020;-92
2023/07/10 05:09:38;;;;;;;1.08;0.98;;;;;;;20.10;100.00;100281.66;6068175;23;20336;-90
2023/07/10 05:12:04;;;;;;;2.33;1.48;;;;;;;20.16;100.00;100286.06;6070274;23;20018;-92
2023/07/10 05:14:30;;;;;;;0.77;0.77;;;;;;;20.33;100.00;100284.19;6091230;23;20017;-92
2023/07/10 05:16:55;;;;;;;1.08;1.08;;;;;;;20.41;100.00;100279.66;6092307;23;20010;-91
2023/07/10 05:19:21;;;;;;;1.50;1.40;;;;;;;20.54;100.00;100281.31;6068529;23;20021;-92
2023/07/10 05:21:47;;;;;;;1.30;1.10;;;;;;;20.68;100.00;100292.44;6094095;23;20450;-93
2023/07/10 05:24:12;;;;;;;2.90;1.35;;;;;;;20.78;100.00;100290.22;6068374;23;20013;-93
2023/07/10 05:26:38;;;;;;;1.38;1.27;;;;;;;20.90;100.00;100291.84;6069762;23;20388;-91
2023/07/10 05:29:04;;;;;;;1.02;0.73;;;;;;;21.03;100.00;100289.34;6044585;23;20497;-93
2023/07/10 05:31:29;;;;;;;0.98;0.73;;;;;;;21.14;100.00;100283.81;6092915;23;20014;-93
2023/07/10 05:33:55;;;;;;;1.02;0.70;;;;;;;21.25;100.00;100295.16;6069229;23;20034;-93
2023/07/10 05:36:21;;;;;;;3.05;2.00;;;;;;;21.32;100.00;100286.19;6069432;23;20057;-93
2023/07/10 05:38:48;;;;;;;1.52;1.35;;;;;;;21.41;100.00;100285.22;6069426;23;20033;-93
2023/07/10 05:41:17;;;;;;;1.60;1.17;;;;;;;21.50;100.00;100292.72;6044949;23;20029;-92
2023/07/10 05:43:43;;;;;;;0.65;0.60;;;;;;;21.67;100.00;100296.38;6067803;23;20018;-92
2023/07/10 05:46:10;;;;;;;0.57;0.57;;;;;;;21.76;100.00;100296.13;6069527;23;20514;-93
2023/07/10 05:48:35;;;;;;;1.52;0.88;;;;;;;21.97;100.00;100297.53;6044589;23;20349;-92
2023/07/10 05:51:01;;;;;;;1.35;1.25;;;;;;;22.16;100.00;100298.59;6093956;23;20014;-93
2023/07/10 05:53:27;;;;;;;1.50;1.40;;;;;;;22.32;100.00;100295.00;6092185;23;20061;-92
2023/07/10 05:55:53;;;;;;;2.67;1.85;;;;;;;22.56;100.00;100305.06;6069827;23;20029;-93
2023/07/10 05:58:21;;;;;;;2.83;1.90;;;;;;;22.76;100.00;100305.63;6065461;23;20102;-93
2023/07/10 06:00:47;;;;;;;2.25;1.15;;;;;;;22.92;100.00;100301.22;6089830;23;20144;-93
2023/07/10 06:03:13;;;;;;;2.95;1.20;;;;;;;23.04;100.00;100302.75;6042333;23;20025;-93
2023/07/10 06:05:39;;;;;;;3.10;1.95;;;;;;;23.18;100.00;100300.91;6069188;23;20014;-92
2023/07/10 06:08:04;;;;;;;1.38;1.10;;;;;;;23.34;100.00;100297.25;6067086;23;20014;-92
2023/07/10 06:10:30;;;;;;;3.28;1.65;;;;;;;23.36;100.00;100293.91;6068108;23;20014;-93
2023/07/10 06:12:55;;;;;;;1.30;1.20;;;;;;;23.53;100.00;100291.84;6065753;23;20100;-91
2023/07/10 06:15:21;;;;;;;0.73;0.68;;;;;;;23.67;100.00;100280.19;6068394;23;20134;-92
2023/07/10 06:17:47;;;;;;;1.25;1.10;;;;;;;23.76;100.00;100276.28;6045078;23;20335;-93
2023/07/10 06:20:13;;;;;;;1.45;1.35;;;;;;;23.91;100.00;100285.22;6066955;23;20018;-92
2023/07/10 06:22:39;;;;;;;1.50;0.82;;;;;;;23.94;100.00;100286.97;6092220;23;20002;-92
2023/07/10 06:25:05;;;;;;;2.35;1.70;;;;;;;23.99;100.00;100289.03;6090125;23;20473;-92
2023/07/10 06:27:30;;;;;;;0.47;0.47;;;;;;;24.10;100.00;100291.03;6044699;23;20009;-93
2023/07/10 06:29:56;;;;;;;0.63;0.63;;;;;;;24.33;100.00;100303.00;6093254;23;20459;-93
2023/07/10 06:32:22;;;;;;;1.58;1.27;;;;;;;24.45;100.00;100301.63;6045252;23;20424;-93
2023/07/10 06:34:47;;;;;;;1.77;1.40;;;;;;;24.76;100.00;100292.59;6092462;23;20018;-93
2023/07/10 06:37:13;;;;;;;1.50;1.00;;;;;;;25.04;100.00;100298.81;6070715;23;20013;-94
2023/07/10 06:39:38;;;;;;;3.83;0.85;;;;;;;25.20;100.00;100297.09;6093561;23;20006;-94
2023/07/10 06:42:04;;;;;;;2.10;1.10;;;;;;;25.43;100.00;100286.28;6070357;23;20014;-95
2023/07/10 06:44:38;;;;;;;2.20;1.00;;;;;;;25.79;100.00;100290.50;6074904;23;20085;-96
2023/07/10 06:47:04;;;;;;;2.47;1.60;;;;;;;26.15;100.00;100301.63;6071641;23;20072;-95
2023/07/10 06:49:30;;;;;;;1.88;1.63;;;;;;;26.35;100.00;100296.16;6072115;23;20002;-95
2023/07/10 06:51:55;;;;;;;1.48;1.38;;;;;;;26.60;98.82;100299.66;6071522;23;20010;-94
2023/07/10 06:54:21;;;;;;;1.10;1.00;;;;;;;26.84;98.16;100308.06;6025259;23;20032;-96
2023/07/10 06:56:46;;;;;;;0.98;0.88;;;;;;;26.99;97.33;100306.78;6072405;23;20410;-95
2023/07/10 06:59:12;;;;;;;1.80;1.50;;;;;;;27.23;94.32;100307.34;6095942;23;20043;-95
2023/07/10 07:01:37;;;;;;;1.60;1.05;;;;;;;27.40;93.43;100312.72;6073346;23;20092;-95
2023/07/10 07:04:03;;;;;;;2.70;2.03;;;;;;;27.59;92.66;100296.31;6071221;23;20018;-96
2023/07/10 07:06:28;;;;;;;1.73;1.60;;;;;;;27.94;91.09;100297.13;6081746;23;20457;-96
2023/07/10 07:08:54;;;;;;;1.17;1.13;;;;;;;28.25;87.80;100311.22;6083596;23;20024;-96
2023/07/10 07:11:20;;;;;;;1.80;1.02;;;;;;;28.46;86.33;100301.91;6087157;23;20101;-96
2023/07/10 07:13:48;;;;;;;0.68;0.68;;;;;;;28.62;84.66;100304.38;6062329;23;20371;-95
2023/07/10 07:16:14;;;;;;;1.50;1.33;;;;;;;28.82;84.77;100299.22;6090166;23;20034;-96
2023/07/10 07:18:39;;;;;;;1.95;1.63;;;;;;;28.88;84.60;100291.28;6115728;23;20037;-95
2023/07/10 07:21:05;;;;;;;1.95;1.35;;;;;;;29.15;83.92;100298.34;6068895;23;20022;-94
2023/07/10 07:23:31;;;;;;;1.42;1.33;;;;;;;29.39;79.13;100289.41;6069414;23;20026;-96
2023/07/10 07:25:57;;;;;;;1.10;1.00;;;;;;;29.42;73.61;100287.50;6091760;23;20024;-96
2023/07/10 07:28:22;;;;;;;2.78;2.05;;;;;;;29.57;74.60;100284.72;6090411;23;20021;-96
2023/07/10 07:30:48;;;;;;;1.30;1.20;;;;;;;29.37;75.15;100288.41;6091177;23;20018;-96
2023/07/10 07:33:18;;;;;;;4.57;1.42;;;;;;;29.65;77.02;100291.22;6092159;23;20014;-95
2023/07/10 07:35:43;;;;;;;1.55;1.30;;;;;;;29.73;74.40;100289.16;6072773;23;20017;-95
2023/07/10 07:38:09;;;;;;;2.22;2.03;;;;;;;29.99;73.27;100279.59;6096085;23;20014;-96
2023/07/10 07:40:35;;;;;;;0.93;0.90;;;;;;;30.25;72.06;100273.53;6071741;23;20049;-95
2023/07/10 07:43:01;;;;;;;1.10;1.00;;;;;;;30.50;67.53;100280.28;6120343;23;20013;-96
2023/07/10 07:45:26;;;;;;;1.35;1.25;;;;;;;30.63;68.17;100275.72;6123463;23;20058;-96
2023/07/10 07:47:52;;;;;;;1.83;1.00;;;;;;;30.63;68.32;100281.44;6099190;23;20022;-96
2023/07/10 07:50:17;;;;;;;1.05;1.05;;;;;;;30.82;68.79;100276.09;6098423;23;20057;-96
2023/07/10 07:52:43;;;;;;;4.28;1.83;;;;;;;30.84;66.07;100273.44;6074864;23;20459;-96
2023/07/10 07:55:09;;;;;;;1.75;1.30;;;;;;;31.20;64.22;100276.88;6123031;23;20037;-95
2023/07/10 07:57:34;;;;;;;1.45;1.35;;;;;;;31.18;63.34;100273.06;6098705;23;20010;-96
2023/07/10 08:00:00;;;;;;;1.10;0.93;;;;;;;31.48;62.94;100279.47;6097456;23;20022;-96
2023/07/10 08:02:26;;;;;;;0.60;0.60;;;;;;;31.59;58.12;100277.53;6086833;23;20558;-95
2023/07/10 08:04:51;;;;;;;0.82;0.82;;;;;;;31.67;56.39;100284.00;6075792;23;20017;-96
2023/07/10 12:06:50;;;;;;;2.20;1.73;;;;;;;36.57;38.34;100105.94;6117525;23;20030;-91
2023/07/10 12:09:17;;;;;;;1.30;1.20;;;;;;;36.24;38.56;100093.53;6049903;23;20060;-95
2023/07/10 12:11:45;;;;;;;1.40;1.25;;;;;;;36.51;38.85;100096.13;6060839;23;20045;-96
2023/07/10 12:14:14;;;;;;;6.65;2.17;;;;;;;36.77;37.69;100112.38;6084722;23;20028;-96
2023/07/10 12:17:00;;;;;;;11.43;2.63;;;;;;;36.55;37.05;100071.16;6082556;23;20022;-96
2023/07/10 12:19:31;;;;;;;1.25;1.15;;;;;;;36.63;37.78;100086.19;6062777;23;20017;-96
2023/07/10 12:22:02;;;;;;;1.80;1.40;;;;;;;36.86;37.54;100103.63;6072222;23;20080;-91
2023/07/10 12:24:27;;;;;;;0.75;0.75;;;;;;;36.93;37.88;100096.88;6044074;23;20006;-91
2023/07/10 12:26:55;;;;;;;0.70;0.70;;;;;;;37.20;37.42;100102.28;6067431;23;20016;-90
2023/07/10 12:29:21;;;;;;;2.13;1.92;;;;;;;36.95;36.57;100087.59;6043794;23;20076;-91
2023/07/10 12:31:47;;;;;;;1.55;1.45;;;;;;;37.16;36.86;100095.50;6068368;23;20017;-91
2023/07/10 12:34:25;;;;;;;1.70;1.60;;;;;;;37.08;36.27;100106.53;6066369;23;20192;-90
2023/07/10 12:36:54;;;;;;;1.85;1.58;;;;;;;36.65;36.57;100083.41;6044551;23;20388;-91
2023/07/10 12:39:21;;;;;;;1.48;1.38;;;;;;;36.81;37.72;100084.50;6068229;23;20030;-90
2023/07/10 12:41:51;;;;;;;1.63;1.52;;;;;;;36.40;37.44;100063.63;6066589;23;20022;-90
2023/07/10 12:44:25;;;;;;;1.30;1.20;;;;;;;36.16;37.99;100078.53;6039734;23;20089;-91
2023/07/10 12:47:13;;;;;;;1.33;1.25;;;;;;;36.21;38.59;100086.13;6044318;23;20022;-91
2023/07/10 12:49:38;;;;;;;1.60;1.50;;;;;;;35.95;38.78;100064.81;6045737;23;20298;-91
2023/07/10 12:52:06;;;;;;;1.73;1.40;;;;;;;36.03;39.58;100070.41;6070528;23;20097;-91
2023/07/10 12:54:39;;;;;;;4.65;1.33;;;;;;;36.39;38.09;100076.59;6045225;23;20093;-92
2023/07/10 12:57:14;;;;;;;1.10;1.05;;;;;;;36.76;37.76;100071.13;6045810;23;20087;-91
2023/07/10 12:59:40;;;;;;;1.13;1.02;;;;;;;36.84;35.98;100074.56;6046294;23;20165;-91
2023/07/10 13:02:16;;;;;;;1.42;1.25;;;;;;;36.96;35.99;100068.09;6119183;23;20006;-90
2023/07/10 13:04:47;;;;;;;2.42;1.33;;;;;;;36.95;36.07;100057.91;6092128;23;20030;-90
2023/07/10 13:07:22;;;;;;;1.25;1.15;;;;;;;37.19;35.59;100059.53;6045883;23;20022;-90
2023/07/10 13:09:57;;;;;;;0.75;0.75;;;;;;;37.21;35.40;100062.53;6071172;23;20033;-90
2023/07/10 13:12:27;;;;;;;1.27;1.17;;;;;;;37.38;34.82;100044.84;6042881;23;20471;-91
2023/07/10 13:14:53;;;;;;;1.58;1.48;;;;;;;37.53;33.08;100049.44;6069206;23;20029;-90
2023/07/10 13:17:21;;;;;;;2.10;1.95;;;;;;;37.29;32.89;100057.28;6066268;23;20018;-93
2023/07/10 13:19:47;;;;;;;1.23;1.20;;;;;;;37.32;33.64;100041.59;6069148;23;20010;-95
2023/07/10 13:22:13;;;;;;;1.48;1.38;;;;;;;37.66;32.78;100040.13;6044519;23;20022;-93
2023/07/10 13:24:38;;;;;;;1.63;1.25;;;;;;;37.59;32.41;100053.47;6070389;23;20402;-93
2023/07/10 13:27:05;;;;;;;2.20;1.75;;;;;;;37.35;32.20;100041.06;6045301;23;20636;-94
2023/07/10 13:29:30;;;;;;;0.90;0.90;;;;;;;37.24;32.74;100041.06;6045379;23;20065;-94
2023/07/10 13:31:56;;;;;;;1.20;1.13;;;;;;;37.14;31.87;100041.16;6069228;23;20018;-93
2023/07/10 13:34:21;;;;;;;3.90;2.03;;;;;;;37.07;32.73;100045.03;6093062;23;20017;-92
2023/07/10 13:36:47;;;;;;;2.47;1.20;;;;;;;36.96;32.96;100033.41;6045931;23;20033;-94
2023/07/10 13:39:15;;;;;;;1.65;1.55;;;;;;;36.83;32.44;100028.97;6045974;23;20009;-93
2023/07/10 13:41:41;;;;;;;1.77;1.33;;;;;;;36.68;32.65;100029.41;6069070;23;20018;-94
2023/07/10 13:44:06;;;;;;;1.33;1.23;;;;;;;36.79;33.89;100015.00;6042576;23;20081;-93
2023/07/10 13:46:32;;;;;;;3.97;1.70;;;;;;;37.20;33.50;100032.13;6045875;23;20022;-89
2023/07/10 13:49:01;;;;;;;1.30;1.08;;;;;;;37.36;32.27;100038.94;6043405;23;20515;-90
2023/07/10 13:51:28;;;;;;;1.40;1.13;;;;;;;37.19;32.74;100033.50;6093020;23;20568;-90
2023/07/10 13:53:55;;;;;;;0.82;0.82;;;;;;;37.08;32.50;100035.00;6044744;23;20018;-91
2023/07/10 13:56:28;;;;;;;1.45;1.35;;;;;;;37.07;31.80;100035.59;6068847;23;20425;-89
2023/07/10 13:58:54;;;;;;;2.85;0.88;;;;;;;36.87;31.60;100018.44;6044649;23;20092;-90
2023/07/10 14:01:20;;;;;;;2.85;1.90;;;;;;;36.83;32.32;100015.28;6068265;23;20100;-89
2023/07/10 14:03:46;;;;;;;2.67;1.23;;;;;;;36.89;31.98;100030.09;6118410;23;20096;-93
2023/07/10 14:06:24;;;;;;;1.45;1.35;;;;;;;36.56;32.66;100029.31;6068786;23;20024;-94
2023/07/10 14:08:53;;;;;;;1.60;1.50;;;;;;;36.57;33.30;100013.50;6069670;23;20052;-93
2023/07/10 14:11:19;;;;;;;1.92;1.42;;;;;;;36.52;33.98;99988.59;6044813;23;20396;-93
2023/07/10 14:13:45;;;;;;;1.35;1.23;;;;;;;36.69;34.76;100002.00;6068808;23;20234;-94
2023/07/10 14:16:24;;;;;;;1.00;0.80;;;;;;;36.45;34.83;99995.34;6069104;23;20104;-89
2023/07/10 14:18:50;;;;;;;3.15;1.73;;;;;;;35.97;33.64;99993.53;6091768;23;20017;-90
2023/07/10 14:21:16;;;;;;;1.65;1.17;;;;;;;36.14;34.75;100003.34;6068671;23;20459;-91
2023/07/10 14:23:41;;;;;;;2.17;1.67;;;;;;;36.22;35.00;100001.00;6068894;23;20014;-90
2023/07/10 14:26:13;;;;;;;1.05;1.00;;;;;;;36.15;33.95;99982.53;6067657;23;20112;-89
2023/07/10 14:28:39;;;;;;;1.13;1.02;;;;;;;35.94;34.71;99999.78;6069272;23;20022;-90
2023/07/10 14:31:04;;;;;;;1.35;1.00;;;;;;;35.93;35.42;99978.81;6067967;23;20339;-89
2023/07/10 14:33:30;;;;;;;1.60;1.42;;;;;;;35.90;35.31;99985.09;6043339;23;20032;-90
2023/07/10 14:35:56;;;;;;;2.92;1.95;;;;;;;35.88;35.54;99988.56;6091525;23;20104;-91
2023/07/10 14:38:26;;;;;;;1.00;0.85;;;;;;;35.93;36.16;99970.16;6091854;23;20487;-90
2023/07/10 14:40:54;;;;;;;2.22;1.73;;;;;;;36.17;35.32;99981.88;6090412;23;20109;-90
2023/07/10 14:43:20;;;;;;;5.22;2.08;;;;;;;36.26;34.49;99978.16;6043171;23;20097;-94
2023/07/10 14:45:58;;;;;;;3.97;1.75;;;;;;;36.20;35.06;99963.31;6067749;23;20025;-93
2023/07/10 14:48:25;;;;;;;4.07;2.28;;;;;;;36.61;34.97;99981.25;6043726;23;20391;-93
2023/07/10 14:50:51;;;;;;;2.80;2.08;;;;;;;36.65;34.56;99956.25;6090812;23;20025;-92
2023/07/10 14:53:18;;;;;;;1.23;1.13;;;;;;;36.72;33.74;99981.28;6044200;23;20009;-93
2023/07/10 14:55:45;;;;;;;2.10;1.58;;;;;;;36.29;32.73;99965.38;6044225;23;20014;-93
2023/07/10 14:58:16;;;;;;;0.80;0.77;;;;;;;36.00;34.11;99968.44;6068319;23;20024;-93
2023/07/10 15:00:42;;;;;;;1.42;1.23;;;;;;;36.13;33.29;99987.38;6069265;23;20041;-94
2023/07/10 15:03:12;;;;;;;0.80;0.80;;;;;;;36.06;32.59;99971.75;6091609;23;20018;-93
2023/07/10 15:05:39;;;;;;;3.38;1.10;;;;;;;35.84;33.13;99973.09;6068538;23;20025;-94
2023/07/10 15:08:05;;;;;;;0.88;0.88;;;;;;;35.79;33.46;99971.34;6044026;23;20222;-93
2023/07/10 15:10:30;;;;;;;2.80;2.17;;;;;;;35.67;32.96;99979.88;6067478;23;20115;-94
2023/07/10 15:13:02;;;;;;;1.55;1.45;;;;;;;35.69;33.93;99990.81;6043817;23;20021;-94
2023/07/10 15:15:35;;;;;;;1.38;1.27;;;;;;;35.47;33.58;99982.06;6069272;23;20025;-94
2023/07/10 15:18:04;;;;;;;1.13;1.00;;;;;;;35.39;32.87;99958.44;6068886;23;20112;-94
2023/07/10 15:20:30;;;;;;;0.90;0.90;;;;;;;35.29;31.25;99968.50;6066512;23;20064;-90
2023/07/10 15:22:55;;;;;;;1.60;0.70;;;;;;;35.20;31.61;99980.81;6041359;23;20026;-91
2023/07/10 15:25:25;;;;;;;0.77;0.70;;;;;;;34.92;31.57;99973.75;6042170;23;20519;-90